Time;durP1;ratioP1;P1;durP2;ratioP2;P2;SDS_P1;SDS_P2;PMS_P1;PMS_P2;Temp;Humidity;BMP_temperature;BMP_pressure;BME280_temperature;BME280_humidity;BME280_pressure;Samples;Min_cycle;Max_cycle;Signal;HPM_P1;HPM_P2
2023/09/25 00:01:05;;;;;;;0.10;0.10;;;8.40;65.50;;;;;;4959511;28;20034;-83
2023/09/25 00:03:31;;;;;;;0.10;0.10;;;8.50;63.30;;;;;;4976223;28;20078;-83
2023/09/25 00:05:57;;;;;;;0.22;0.22;;;8.50;53.30;;;;;;4960317;28;20121;-83
2023/09/25 00:08:25;;;;;;;0.10;0.10;;;8.50;28.80;;;;;;4971976;28;20035;-84
2023/09/25 00:10:51;;;;;;;0.10;0.10;;;8.30;2.20;;;;;;4969335;28;20027;-84
2023/09/25 00:13:17;;;;;;;0.10;0.10;;;8.20;1.00;;;;;;4976353;28;20480;-83
2023/09/25 00:15:45;;;;;;;0.13;0.13;;;8.10;1.00;;;;;;4951448;28;20069;-83
2023/09/25 00:18:13;;;;;;;0.40;0.40;;;8.10;18.20;;;;;;4951217;28;20036;-83
2023/09/25 00:20:40;;;;;;;0.47;0.47;;;8.10;27.30;;;;;;4945733;28;20043;-83
2023/09/25 00:23:06;;;;;;;0.20;0.20;;;8.10;42.00;;;;;;4971739;28;20035;-83
2023/09/25 00:25:32;;;;;;;2.92;0.30;;;8.20;42.30;;;;;;4959802;28;20035;-82
2023/09/25 00:27:59;;;;;;;0.17;0.17;;;8.20;43.70;;;;;;4972137;28;20042;-83
2023/09/25 00:30:26;;;;;;;0.47;0.40;;;8.20;31.60;;;;;;4948598;28;20039;-84
2023/09/25 00:32:52;;;;;;;0.30;0.30;;;8.20;32.60;;;;;;4972389;28;20041;-83
2023/09/25 00:35:20;;;;;;;0.25;0.25;;;8.20;11.80;;;;;;4981552;28;20084;-83
2023/09/25 00:37:47;;;;;;;0.95;0.30;;;8.20;13.90;;;;;;4950549;28;20035;-83
2023/09/25 00:40:14;;;;;;;0.10;0.10;;;8.00;10.20;;;;;;4975938;28;20038;-82
2023/09/25 00:42:41;;;;;;;3.55;1.35;;;7.90;14.70;;;;;;4978433;28;20039;-82
2023/09/25 00:45:09;;;;;;;0.20;0.20;;;7.90;22.80;;;;;;4962097;28;20130;-82
2023/09/25 00:47:36;;;;;;;0.10;0.10;;;7.80;21.90;;;;;;4975851;28;20484;-82
2023/09/25 00:50:05;;;;;;;0.10;0.10;;;7.80;31.90;;;;;;4958287;28;20062;-83
2023/09/25 00:52:33;;;;;;;0.20;0.20;;;7.80;37.30;;;;;;4965463;28;20055;-83
2023/09/25 00:55:00;;;;;;;0.80;0.65;;;7.80;51.70;;;;;;4981830;28;20034;-83
2023/09/25 00:57:27;;;;;;;1.10;0.80;;;7.80;51.20;;;;;;4972229;28;20082;-83
2023/09/25 00:59:53;;;;;;;0.20;0.20;;;7.80;40.10;;;;;;4975093;28;20126;-83
2023/09/25 01:02:20;;;;;;;0.73;0.30;;;7.70;28.90;;;;;;4959221;28;20030;-83
2023/09/25 01:04:46;;;;;;;0.10;0.10;;;7.60;23.10;;;;;;4959878;28;20051;-84
2023/09/25 01:07:18;;;;;;;0.20;0.20;;;7.40;28.30;;;;;;4960386;28;20047;-83
2023/09/25 01:10:23;;;;;;;0.73;0.73;;;7.40;44.00;;;;;;4953496;28;20062;-83
2023/09/25 01:12:52;;;;;;;0.30;0.30;;;7.30;45.40;;;;;;4907605;29;20137;-82
2023/09/25 01:15:19;;;;;;;0.20;0.20;;;7.20;49.70;;;;;;4901746;29;20048;-83
2023/09/25 01:17:46;;;;;;;0.15;0.15;;;7.30;53.90;;;;;;4899762;29;20370;-82
2023/09/25 01:20:17;;;;;;;0.52;0.52;;;7.20;58.80;;;;;;4900319;29;20051;-82
2023/09/25 01:22:45;;;;;;;0.88;0.60;;;7.10;51.30;;;;;;4902645;29;20044;-83
2023/09/25 01:25:12;;;;;;;0.73;0.55;;;7.10;49.80;;;;;;4894474;29;20166;-83
2023/09/25 01:27:39;;;;;;;0.20;0.20;;;7.00;56.40;;;;;;4888977;29;20085;-83
2023/09/25 01:30:09;;;;;;;0.30;0.30;;;7.00;69.30;;;;;;4902764;29;20060;-83
2023/09/25 01:32:37;;;;;;;0.43;0.40;;;7.00;91.90;;;;;;4904790;29;20375;-83
2023/09/25 01:35:08;;;;;;;0.10;0.10;;;7.00;94.20;;;;;;4895684;29;20509;-82
2023/09/25 01:37:34;;;;;;;0.10;0.10;;;6.90;94.30;;;;;;4896442;29;20064;-83
2023/09/25 01:40:01;;;;;;;0.43;0.43;;;6.90;99.70;;;;;;4903014;29;20085;-82
2023/09/25 01:42:27;;;;;;;0.63;0.63;;;7.00;99.90;;;;;;4899102;29;20040;-83
2023/09/25 01:44:53;;;;;;;0.10;0.10;;;7.00;99.90;;;;;;4945219;28;20031;-82
2023/09/25 01:47:20;;;;;;;0.20;0.20;;;7.00;75.80;;;;;;4966667;28;20035;-81
2023/09/25 01:49:46;;;;;;;0.30;0.30;;;6.90;65.50;;;;;;4967880;28;20043;-83
2023/09/25 01:52:14;;;;;;;0.20;0.20;;;6.80;61.30;;;;;;4961860;28;20495;-83
2023/09/25 01:54:40;;;;;;;0.15;0.15;;;6.80;71.30;;;;;;4957363;28;20031;-83
2023/09/25 01:57:06;;;;;;;0.10;0.10;;;6.80;85.20;;;;;;4956750;28;20035;-82
2023/09/25 01:59:32;;;;;;;0.20;0.20;;;6.90;89.20;;;;;;4954535;28;20114;-82
2023/09/25 02:01:59;;;;;;;0.10;0.10;;;6.90;92.30;;;;;;4965483;28;20496;-83
2023/09/25 02:04:25;;;;;;;0.20;0.20;;;6.90;86.00;;;;;;4964312;28;20042;-86
2023/09/25 02:06:51;;;;;;;0.90;0.30;;;6.90;66.90;;;;;;4977917;28;20079;-83
2023/09/25 02:09:17;;;;;;;0.25;0.25;;;6.90;58.40;;;;;;4943775;28;20389;-82
2023/09/25 02:11:43;;;;;;;0.40;0.40;;;7.00;56.30;;;;;;4952785;28;20160;-82
2023/09/25 02:14:10;;;;;;;0.10;0.10;;;7.00;45.60;;;;;;4954548;28;20070;-82
2023/09/25 02:16:36;;;;;;;0.20;0.20;;;6.90;40.70;;;;;;4944337;28;20047;-82
2023/09/25 02:19:03;;;;;;;0.10;0.10;;;6.70;40.90;;;;;;4960159;28;20448;-82
2023/09/25 02:21:29;;;;;;;1.77;0.70;;;6.60;66.10;;;;;;4953478;28;20047;-83
2023/09/25 02:23:56;;;;;;;3.78;1.25;;;6.60;92.30;;;;;;4967589;28;20043;-82
2023/09/25 02:26:22;;;;;;;0.13;0.13;;;6.70;99.90;;;;;;4972050;28;20030;-82
2023/09/25 02:28:51;;;;;;;0.10;0.10;;;6.70;99.90;;;;;;4974544;28;20022;-82
2023/09/25 02:31:18;;;;;;;1.55;0.73;;;6.70;99.90;;;;;;4956414;28;20042;-83
2023/09/25 02:33:45;;;;;;;0.30;0.30;;;6.70;99.90;;;;;;4974945;28;20054;-82
2023/09/25 02:36:12;;;;;;;0.30;0.30;;;6.60;98.50;;;;;;4955458;28;20149;-82
2023/09/25 02:38:38;;;;;;;0.60;0.60;;;6.60;99.90;;;;;;4944224;28;20046;-82
2023/09/25 02:41:06;;;;;;;0.10;0.10;;;6.60;99.10;;;;;;4980627;28;20133;-83
2023/09/25 02:43:32;;;;;;;0.28;0.28;;;6.70;98.70;;;;;;4963918;28;20050;-82
2023/09/25 02:46:00;;;;;;;0.10;0.10;;;6.70;99.10;;;;;;4977723;28;20103;-82
2023/09/25 02:48:27;;;;;;;0.80;0.80;;;6.60;86.00;;;;;;4963920;28;20472;-82
2023/09/25 02:50:53;;;;;;;0.88;0.82;;;6.60;83.50;;;;;;4978559;28;20030;-82
2023/09/25 02:53:19;;;;;;;0.25;0.25;;;6.60;85.20;;;;;;4962865;28;20105;-83
2023/09/25 02:55:51;;;;;;;0.20;0.20;;;6.60;88.10;;;;;;4972853;28;20413;-82
2023/09/25 02:58:18;;;;;;;0.30;0.30;;;6.50;53.00;;;;;;4976559;28;20384;-82
2023/09/25 03:00:45;;;;;;;0.20;0.20;;;6.40;40.70;;;;;;4950943;28;20039;-83
2023/09/25 03:03:14;;;;;;;0.63;0.63;;;6.40;65.10;;;;;;4948898;28;20043;-82
2023/09/25 03:05:40;;;;;;;0.20;0.20;;;6.40;75.60;;;;;;4977363;28;20047;-82
2023/09/25 03:08:06;;;;;;;0.40;0.30;;;6.40;77.10;;;;;;4961807;28;20472;-82
2023/09/25 03:10:32;;;;;;;0.40;0.40;;;6.40;88.80;;;;;;4949450;28;20043;-81
2023/09/25 03:12:58;;;;;;;0.10;0.10;;;6.40;91.50;;;;;;4978057;28;20392;-82
2023/09/25 03:15:24;;;;;;;0.10;0.10;;;6.40;97.00;;;;;;4957187;28;20042;-83
2023/09/25 03:17:51;;;;;;;0.20;0.20;;;6.50;99.90;;;;;;4953667;28;20675;-83
2023/09/25 03:20:17;;;;;;;0.20;0.20;;;6.50;97.70;;;;;;4960260;28;20475;-83
2023/09/25 03:22:45;;;;;;;0.57;0.57;;;6.40;94.60;;;;;;4960225;28;20050;-83
2023/09/25 03:25:14;;;;;;;5.28;1.50;;;6.30;79.60;;;;;;4955317;28;20141;-84
2023/09/25 03:27:41;;;;;;;0.20;0.20;;;6.30;95.70;;;;;;4925481;28;20420;-83
2023/09/25 03:30:07;;;;;;;0.55;0.55;;;6.30;99.90;;;;;;4978931;28;20041;-84
2023/09/25 03:32:33;;;;;;;0.65;0.55;;;6.30;99.90;;;;;;4954711;28;20053;-83
2023/09/25 03:35:03;;;;;;;0.10;0.10;;;6.30;99.00;;;;;;4971789;28;20055;-83
2023/09/25 03:37:30;;;;;;;1.33;0.68;;;6.10;79.50;;;;;;4969758;28;20436;-85
2023/09/25 03:39:56;;;;;;;0.20;0.20;;;6.10;83.90;;;;;;4949489;28;20039;-83
2023/09/25 03:42:22;;;;;;;0.10;0.10;;;6.20;96.20;;;;;;4977797;28;20475;-83
2023/09/25 03:44:50;;;;;;;0.32;0.32;;;6.20;93.90;;;;;;4964161;28;20240;-83
2023/09/25 03:47:18;;;;;;;0.40;0.40;;;6.10;89.90;;;;;;4976779;28;20054;-83
2023/09/25 03:49:44;;;;;;;0.35;0.35;;;6.00;93.80;;;;;;4956210;28;20086;-82
2023/09/25 03:52:10;;;;;;;0.30;0.30;;;6.10;97.70;;;;;;4957804;28;20038;-83
2023/09/25 03:54:37;;;;;;;0.40;0.40;;;6.10;99.90;;;;;;4952542;28;20050;-83
2023/09/25 03:57:03;;;;;;;0.50;0.45;;;6.10;95.60;;;;;;4972254;28;20062;-83
2023/09/25 03:59:30;;;;;;;1.25;0.57;;;6.20;91.40;;;;;;4939527;28;20070;-84
2023/09/25 04:01:57;;;;;;;0.45;0.45;;;6.20;78.50;;;;;;4953757;28;20654;-83
2023/09/25 04:04:23;;;;;;;0.40;0.40;;;6.10;57.40;;;;;;4973665;28;20464;-82
2023/09/25 04:06:49;;;;;;;1.35;0.63;;;6.10;60.60;;;;;;4970429;28;20041;-82
2023/09/25 04:09:15;;;;;;;0.15;0.15;;;6.10;59.70;;;;;;4954505;28;20039;-83
2023/09/25 04:11:41;;;;;;;0.30;0.30;;;6.00;80.00;;;;;;4962556;28;20058;-83
2023/09/25 04:14:10;;;;;;;1.17;0.68;;;6.00;84.90;;;;;;4980764;28;20038;-83
2023/09/25 04:16:36;;;;;;;1.33;0.47;;;6.00;95.90;;;;;;4946679;28;20050;-83
2023/09/25 04:19:04;;;;;;;0.43;0.32;;;6.00;99.90;;;;;;4960322;28;20079;-82
2023/09/25 04:21:31;;;;;;;0.10;0.10;;;6.00;99.90;;;;;;4971209;28;20392;-82
2023/09/25 04:24:00;;;;;;;0.73;0.73;;;5.90;99.90;;;;;;4969909;28;20369;-83
2023/09/25 04:26:26;;;;;;;0.15;0.15;;;6.00;99.90;;;;;;4974166;28;20043;-83
2023/09/25 04:28:52;;;;;;;0.10;0.10;;;5.90;99.90;;;;;;4956921;28;20050;-83
2023/09/25 04:31:18;;;;;;;1.35;0.77;;;5.90;99.90;;;;;;4975385;28;20050;-83
2023/09/25 04:33:44;;;;;;;0.15;0.15;;;5.90;99.90;;;;;;4973211;28;20148;-82
2023/09/25 04:36:10;;;;;;;0.20;0.20;;;5.90;99.90;;;;;;4949188;28;20050;-82
2023/09/25 04:38:37;;;;;;;0.30;0.30;;;5.80;99.90;;;;;;4958447;28;20046;-82
2023/09/25 04:41:03;;;;;;;0.20;0.20;;;5.70;99.90;;;;;;4973948;28;20041;-83
2023/09/25 04:43:32;;;;;;;1.05;1.05;;;5.70;99.90;;;;;;4966248;28;20043;-82
2023/09/25 04:45:58;;;;;;;0.15;0.15;;;5.70;99.90;;;;;;4967428;28;20031;-83
2023/09/25 04:48:25;;;;;;;0.10;0.10;;;5.70;99.90;;;;;;4947752;28;20058;-83
2023/09/25 04:50:51;;;;;;;0.40;0.40;;;5.60;99.90;;;;;;4959447;28;20047;-83
2023/09/25 04:53:21;;;;;;;0.45;0.45;;;5.60;99.90;;;;;;4972261;28;20034;-82
2023/09/25 04:55:47;;;;;;;0.75;0.70;;;5.60;99.90;;;;;;4984026;28;20043;-83
2023/09/25 04:58:14;;;;;;;0.50;0.50;;;5.70;99.90;;;;;;4965288;28;20050;-83
2023/09/25 05:00:41;;;;;;;1.00;0.90;;;5.70;99.90;;;;;;4969508;28;20043;-83
2023/09/25 05:03:07;;;;;;;0.35;0.35;;;5.70;99.90;;;;;;4966646;28;20041;-83
2023/09/25 05:05:34;;;;;;;0.30;0.30;;;5.70;99.90;;;;;;4959672;28;20043;-88
2023/09/25 05:08:00;;;;;;;0.70;0.30;;;5.60;99.90;;;;;;4964070;28;20388;-83
2023/09/25 05:10:29;;;;;;;0.10;0.10;;;5.60;99.90;;;;;;4961399;28;20149;-83
2023/09/25 05:12:56;;;;;;;0.32;0.32;;;5.60;99.20;;;;;;4963601;28;20026;-83
2023/09/25 05:15:22;;;;;;;0.10;0.10;;;5.60;98.20;;;;;;4945379;28;20043;-82
2023/09/25 05:17:48;;;;;;;0.75;0.68;;;5.60;99.90;;;;;;4973382;28;20035;-83
2023/09/25 05:20:18;;;;;;;0.40;0.40;;;5.50;99.90;;;;;;4971976;28;20034;-83
2023/09/25 05:22:45;;;;;;;6.47;1.30;;;5.50;99.90;;;;;;4962322;28;20053;-82
2023/09/25 05:25:12;;;;;;;0.10;0.10;;;5.50;99.90;;;;;;4973041;28;20038;-81
2023/09/25 05:27:42;;;;;;;0.38;0.38;;;5.70;99.90;;;;;;4964873;28;20042;-78
2023/09/25 05:30:10;;;;;;;4.15;0.80;;;5.70;99.90;;;;;;4977396;28;20046;-84
2023/09/25 05:32:37;;;;;;;0.38;0.38;;;5.70;99.90;;;;;;4982440;28;20034;-86
2023/09/25 05:35:04;;;;;;;0.55;0.55;;;5.70;99.90;;;;;;4970611;28;20046;-83
2023/09/25 05:37:30;;;;;;;4.15;1.83;;;5.60;95.30;;;;;;4975295;28;20443;-83
2023/09/25 05:39:57;;;;;;;1.95;1.85;;;5.70;96.30;;;;;;4963312;28;20031;-86
2023/09/25 05:42:23;;;;;;;1.23;1.13;;;5.60;80.70;;;;;;4953624;28;20042;-84
2023/09/25 05:44:49;;;;;;;0.73;0.73;;;5.60;73.60;;;;;;4965721;28;20034;-82
2023/09/25 05:47:15;;;;;;;0.43;0.43;;;5.60;90.70;;;;;;4958703;28;20671;-84
2023/09/25 05:49:41;;;;;;;0.15;0.15;;;5.80;97.30;;;;;;4974978;28;20039;-84
2023/09/25 05:52:07;;;;;;;0.38;0.38;;;5.80;99.90;;;;;;4969735;28;20038;-84
2023/09/25 05:54:34;;;;;;;0.43;0.43;;;5.80;99.90;;;;;;4957758;28;20433;-84
2023/09/25 05:57:00;;;;;;;0.47;0.47;;;5.90;99.90;;;;;;4980627;28;20083;-82
2023/09/25 05:59:26;;;;;;;0.30;0.30;;;6.00;99.90;;;;;;4979569;28;20045;-83
2023/09/25 06:01:53;;;;;;;0.20;0.20;;;6.10;99.90;;;;;;4967579;28;20042;-85
2023/09/25 06:04:19;;;;;;;0.20;0.20;;;6.20;99.90;;;;;;4965767;28;20043;-84
2023/09/25 06:06:45;;;;;;;3.80;0.57;;;6.40;99.90;;;;;;4964381;28;20374;-84
2023/09/25 06:09:15;;;;;;;1.17;1.00;;;6.60;99.90;;;;;;4946753;28;20146;-84
2023/09/25 06:11:42;;;;;;;0.95;0.90;;;6.70;99.90;;;;;;4943345;28;20047;-84
2023/09/25 06:14:11;;;;;;;1.27;0.75;;;6.80;99.90;;;;;;4972442;28;20034;-85
2023/09/25 06:16:39;;;;;;;0.85;0.73;;;7.00;99.90;;;;;;4978025;28;20035;-87
2023/09/25 06:19:06;;;;;;;0.63;0.63;;;7.20;99.90;;;;;;4962409;28;20047;-84
2023/09/25 06:21:33;;;;;;;0.20;0.20;;;7.40;99.90;;;;;;4961046;28;20053;-84
2023/09/25 06:23:59;;;;;;;0.63;0.55;;;7.40;99.90;;;;;;4979782;28;20050;-84
2023/09/25 06:26:27;;;;;;;0.60;0.55;;;7.60;99.90;;;;;;4963098;28;20122;-84
2023/09/25 06:28:54;;;;;;;2.13;1.00;;;7.80;99.90;;;;;;4958136;28;20053;-85
2023/09/25 06:31:24;;;;;;;0.20;0.20;;;7.90;99.90;;;;;;4976699;28;20050;-84
2023/09/25 06:33:52;;;;;;;0.73;0.70;;;8.10;99.90;;;;;;4970347;28;20066;-84
2023/09/25 06:36:19;;;;;;;0.30;0.30;;;8.20;99.90;;;;;;4951771;28;20051;-84
2023/09/25 06:38:45;;;;;;;0.50;0.50;;;8.40;99.90;;;;;;4955546;28;20046;-84
2023/09/25 06:41:12;;;;;;;0.77;0.57;;;8.70;99.90;;;;;;4958030;28;20054;-84
2023/09/25 06:43:39;;;;;;;1.17;1.02;;;8.90;99.90;;;;;;4943289;28;20046;-85
2023/09/25 06:46:05;;;;;;;0.77;0.77;;;9.10;99.90;;;;;;4971814;28;20034;-85
2023/09/25 06:48:35;;;;;;;0.35;0.35;;;9.30;99.90;;;;;;4973140;28;20035;-85
2023/09/25 06:51:01;;;;;;;0.50;0.50;;;9.40;99.90;;;;;;4970120;28;20038;-84
2023/09/25 06:53:28;;;;;;;0.90;0.63;;;9.60;99.90;;;;;;4965470;28;20436;-86
2023/09/25 06:55:55;;;;;;;3.92;1.15;;;9.70;79.40;;;;;;4973529;28;20043;-84
2023/09/25 06:58:21;;;;;;;1.40;1.10;;;9.90;41.70;;;;;;4972278;28;20049;-85
2023/09/25 07:00:47;;;;;;;1.13;1.02;;;10.10;1.00;;;;;;4974957;28;20383;-87
2023/09/25 07:03:14;;;;;;;0.13;0.10;;;10.20;1.00;;;;;;4971550;28;20038;-86
2023/09/25 07:05:44;;;;;;;0.25;0.25;;;10.40;1.00;;;;;;4972480;28;20416;-86
2023/09/25 07:08:11;;;;;;;0.57;0.35;;;10.60;1.00;;;;;;4973433;28;20042;-86
2023/09/25 07:10:37;;;;;;;0.60;0.60;;;10.70;1.00;;;;;;4961256;28;20043;-84
2023/09/25 07:13:03;;;;;;;0.50;0.40;;;10.90;1.00;;;;;;4951248;28;20047;-85
2023/09/25 07:15:30;;;;;;;1.33;0.55;;;11.00;1.00;;;;;;4968908;28;20050;-84
2023/09/25 07:17:57;;;;;;;0.45;0.45;;;11.10;1.00;;;;;;4964580;28;20388;-84
2023/09/25 07:20:25;;;;;;;1.13;1.02;;;11.20;99.90;;;;;;4966348;28;20034;-84
2023/09/25 07:22:51;;;;;;;1.02;1.00;;;11.30;99.90;;;;;;4978966;28;20038;-84
2023/09/25 07:25:17;;;;;;;0.98;0.93;;;11.40;99.90;;;;;;4974799;28;20042;-85
2023/09/25 07:27:43;;;;;;;0.40;0.40;;;11.60;99.90;;;;;;4954545;28;20046;-84
2023/09/25 07:30:10;;;;;;;1.17;0.85;;;11.60;99.90;;;;;;4965439;28;20047;-84
2023/09/25 07:32:37;;;;;;;0.60;0.50;;;11.70;99.90;;;;;;4974445;28;20451;-83
2023/09/25 07:35:07;;;;;;;0.45;0.38;;;11.80;99.90;;;;;;4946234;28;20047;-83
2023/09/25 07:37:33;;;;;;;0.13;0.13;;;11.90;99.90;;;;;;4963772;28;20049;-83
2023/09/25 07:39:59;;;;;;;0.28;0.28;;;12.00;99.90;;;;;;4954812;28;20043;-85
2023/09/25 07:42:25;;;;;;;1.00;0.13;;;12.10;99.90;;;;;;4962476;28;20031;-84
2023/09/25 07:44:51;;;;;;;0.30;0.30;;;12.30;99.90;;;;;;4971308;28;20031;-85
2023/09/25 07:47:18;;;;;;;2.00;0.45;;;12.50;99.90;;;;;;4974146;28;20034;-85
2023/09/25 07:49:44;;;;;;;0.38;0.38;;;13.00;99.90;;;;;;4960351;28;20038;-84
2023/09/25 07:52:19;;;;;;;4.47;1.17;;;13.40;31.30;;;;;;4951983;28;20045;-84
2023/09/25 07:54:50;;;;;;;0.17;0.17;;;13.40;1.00;;;;;;4973951;28;20030;-83
2023/09/25 07:57:21;;;;;;;0.10;0.10;;;13.60;1.00;;;;;;4971901;28;20050;-84
2023/09/25 07:59:47;;;;;;;0.10;0.10;;;14.00;1.00;;;;;;4968103;28;20129;-83
2023/09/25 08:02:18;;;;;;;0.13;0.13;;;14.50;1.00;;;;;;4958859;28;20045;-83
2023/09/25 08:04:44;;;;;;;0.43;0.43;;;15.00;1.00;;;;;;4977014;28;20039;-86
2023/09/25 08:07:11;;;;;;;0.73;0.73;;;15.30;99.90;;;;;;4956978;28;20483;-83
2023/09/25 08:09:38;;;;;;;9.07;0.35;;;15.30;99.90;;;;;;4960290;28;20051;-83
2023/09/25 08:12:05;;;;;;;0.35;0.35;;;15.70;99.90;;;;;;4973637;28;20031;-83
2023/09/25 08:14:32;;;;;;;0.52;0.52;;;16.20;99.90;;;;;;4973627;28;20041;-83
2023/09/25 08:16:59;;;;;;;0.20;0.20;;;16.40;99.90;;;;;;4966660;28;20027;-84
2023/09/25 08:19:25;;;;;;;0.22;0.22;;;16.70;99.90;;;;;;4944794;28;20139;-83
2023/09/25 08:21:51;;;;;;;0.57;0.55;;;16.60;99.90;;;;;;4970156;28;20388;-83
2023/09/25 08:24:20;;;;;;;0.10;0.10;;;16.20;99.90;;;;;;4962220;28;20050;-82
2023/09/25 08:26:46;;;;;;;0.10;0.10;;;16.30;99.90;;;;;;4972704;28;20043;-83
2023/09/25 08:29:15;;;;;;;0.30;0.28;;;16.30;99.90;;;;;;4975004;28;20045;-83
2023/09/25 08:31:43;;;;;;;0.65;0.55;;;16.60;99.90;;;;;;4976541;28;20031;-82
2023/09/25 08:34:10;;;;;;;0.10;0.10;;;16.40;99.90;;;;;;4949078;28;20063;-83
2023/09/25 08:36:37;;;;;;;0.95;0.45;;;16.40;99.90;;;;;;4950815;28;20053;-84
2023/09/25 08:39:04;;;;;;;0.10;0.10;;;16.00;99.90;;;;;;4959246;28;20644;-84
2023/09/25 08:41:31;;;;;;;1.65;0.65;;;15.90;99.90;;;;;;4969418;28;20031;-83
2023/09/25 08:44:04;;;;;;;0.10;0.10;;;15.90;99.90;;;;;;4967124;28;20078;-84
2023/09/25 08:46:30;;;;;;;0.30;0.10;;;16.20;99.90;;;;;;4945275;28;20043;-84
2023/09/25 08:48:58;;;;;;;0.32;0.32;;;17.10;99.90;;;;;;4960587;28;20042;-84
2023/09/25 08:51:31;;;;;;;0.10;0.10;;;17.80;99.90;;;;;;4968930;28;20039;-84
2023/09/25 08:53:57;;;;;;;0.40;0.40;;;18.40;99.90;;;;;;4950041;28;20472;-83
2023/09/25 08:56:24;;;;;;;0.75;0.57;;;18.70;90.80;;;;;;4962831;28;20034;-84
2023/09/25 08:58:51;;;;;;;0.10;0.10;;;18.60;99.90;;;;;;4971164;28;20049;-85
2023/09/25 09:01:18;;;;;;;0.20;0.20;;;18.90;81.30;;;;;;4948202;28;20046;-86
2023/09/25 09:03:45;;;;;;;0.28;0.10;;;18.40;64.10;;;;;;4970236;28;20038;-87
2023/09/25 09:06:11;;;;;;;0.20;0.20;;;18.60;87.00;;;;;;4969520;28;20054;-86
2023/09/25 09:08:37;;;;;;;0.45;0.30;;;19.00;66.00;;;;;;4947229;28;20055;-86
2023/09/25 09:11:10;;;;;;;0.10;0.10;;;19.40;21.50;;;;;;4971191;28;20034;-86
2023/09/25 09:13:47;;;;;;;0.10;0.10;;;19.60;14.80;;;;;;4968433;28;20038;-86
2023/09/25 09:16:15;;;;;;;4.05;1.33;;;19.80;18.10;;;;;;4973144;28;20042;-85
2023/09/25 09:18:42;;;;;;;0.32;0.32;;;20.30;1.00;;;;;;4962131;28;20039;-86
2023/09/25 09:21:23;;;;;;;0.38;0.35;;;20.70;1.00;;;;;;4973487;28;20030;-86
2023/09/25 09:23:49;;;;;;;0.10;0.10;;;20.70;1.00;;;;;;4970821;28;20042;-86
2023/09/25 09:26:15;;;;;;;0.20;0.20;;;20.90;1.00;;;;;;4970468;28;20034;-85
2023/09/25 09:28:43;;;;;;;0.20;0.20;;;20.70;1.00;;;;;;4940686;28;20046;-85
2023/09/25 09:31:10;;;;;;;0.10;0.10;;;20.80;1.00;;;;;;4981526;28;20045;-85
2023/09/25 09:33:41;;;;;;;0.13;0.13;;;21.20;1.00;;;;;;4978003;28;20066;-86
2023/09/25 09:36:08;;;;;;;0.30;0.30;;;21.30;1.00;;;;;;4957933;28;20484;-85
2023/09/25 09:38:36;;;;;;;0.60;0.60;;;21.40;1.00;;;;;;4959192;28;20035;-85
2023/09/25 09:41:06;;;;;;;0.73;0.30;;;21.60;1.00;;;;;;4962494;28;20035;-86
2023/09/25 09:43:32;;;;;;;0.17;0.17;;;21.40;1.00;;;;;;4954458;28;20043;-86
2023/09/25 09:46:00;;;;;;;0.20;0.20;;;21.30;1.00;;;;;;4953753;28;20464;-85
2023/09/25 09:48:29;;;;;;;1.33;0.90;;;20.90;1.00;;;;;;4952310;28;20472;-85
2023/09/25 09:50:59;;;;;;;0.20;0.20;;;20.30;1.00;;;;;;4959935;28;20054;-83
2023/09/25 09:53:28;;;;;;;0.17;0.17;;;20.00;1.00;;;;;;4973415;28;20352;-86
2023/09/25 09:55:58;;;;;;;0.30;0.28;;;20.10;1.00;;;;;;4981907;28;20035;-85
2023/09/25 09:58:26;;;;;;;0.17;0.17;;;20.00;1.00;;;;;;4951090;28;20066;-84
2023/09/25 10:00:55;;;;;;;0.20;0.17;;;19.90;1.00;;;;;;4971230;28;20026;-85
2023/09/25 10:03:23;;;;;;;0.20;0.20;;;19.90;1.00;;;;;;4973853;28;20030;-85
2023/09/25 10:05:50;;;;;;;0.57;0.40;;;19.60;1.00;;;;;;4976534;28;20062;-81
2023/09/25 10:08:17;;;;;;;0.30;0.30;;;19.50;1.00;;;;;;4934007;28;20059;-83
2023/09/25 10:10:48;;;;;;;0.30;0.30;;;19.40;1.00;;;;;;4963388;28;20105;-86
2023/09/25 10:13:24;;;;;;;0.25;0.22;;;19.60;1.00;;;;;;4953240;28;20034;-80
2023/09/25 10:16:00;;;;;;;0.10;0.10;;;19.60;1.00;;;;;;4979859;28;20035;-87
2023/09/25 10:18:30;;;;;;;0.20;0.20;;;19.60;1.00;;;;;;4958294;28;20047;-85
2023/09/25 10:21:08;;;;;;;0.10;0.10;;;19.70;1.00;;;;;;4952926;28;20057;-83
2023/09/25 10:23:39;;;;;;;0.05;0.05;;;19.80;1.00;;;;;;4953946;28;20519;-85
2023/09/25 10:26:16;;;;;;;0.63;0.20;;;19.90;1.00;;;;;;4973209;28;20043;-86
2023/09/25 10:28:44;;;;;;;0.10;0.10;;;19.80;1.00;;;;;;4942291;28;20043;-84
2023/09/25 10:31:21;;;;;;;0.10;0.10;;;19.70;1.00;;;;;;4953120;28;20062;-86
2023/09/25 10:33:59;;;;;;;1.15;0.60;;;19.20;1.00;;;;;;4953268;28;20496;-86
2023/09/25 10:36:43;;;;;;;2.47;0.57;;;19.50;1.00;;;;;;4966648;28;20046;-83
2023/09/25 10:39:13;;;;;;;0.10;0.10;;;19.70;1.00;;;;;;4952087;28;20042;-85
2023/09/25 10:41:41;;;;;;;0.20;0.20;;;19.90;1.00;;;;;;4972907;28;20046;-84
2023/09/25 10:44:09;;;;;;;1.75;0.75;;;19.90;1.00;;;;;;4958848;28;20034;-84
2023/09/25 10:46:36;;;;;;;0.52;0.52;;;20.10;1.00;;;;;;4957122;28;20046;-85
2023/09/25 10:49:02;;;;;;;0.43;0.35;;;20.20;1.00;;;;;;4972406;28;20058;-84
2023/09/25 10:51:28;;;;;;;0.25;0.25;;;20.30;1.00;;;;;;4972687;28;20042;-84
2023/09/25 10:53:54;;;;;;;2.20;0.30;;;20.20;1.00;;;;;;4958195;28;20070;-84
2023/09/25 10:56:21;;;;;;;0.10;0.10;;;20.00;1.00;;;;;;4973984;28;20035;-85
2023/09/25 10:58:50;;;;;;;0.20;0.20;;;20.00;1.00;;;;;;4959856;28;20050;-82
2023/09/25 11:01:31;;;;;;;1.48;0.55;;;20.20;1.00;;;;;;4975079;28;20031;-84
2023/09/25 11:04:00;;;;;;;2.92;0.70;;;20.30;1.00;;;;;;4953694;28;20358;-84
2023/09/25 11:06:27;;;;;;;0.10;0.10;;;20.50;1.00;;;;;;4972860;28;20037;-84
2023/09/25 11:09:17;;;;;;;0.25;0.20;;;20.60;1.00;;;;;;4956953;28;20360;-83
2023/09/25 11:11:45;;;;;;;0.35;0.35;;;20.60;1.00;;;;;;4944430;28;20050;-84
2023/09/25 11:14:12;;;;;;;0.10;0.10;;;20.50;1.00;;;;;;4958212;28;20031;-83
2023/09/25 11:16:39;;;;;;;0.20;0.20;;;20.60;1.00;;;;;;4966326;28;20395;-83
2023/09/25 11:19:14;;;;;;;0.30;0.30;;;20.40;1.00;;;;;;4970038;28;20038;-86
2023/09/25 11:21:44;;;;;;;0.30;0.30;;;20.40;1.00;;;;;;4963070;28;20042;-85
2023/09/25 11:24:10;;;;;;;;;;;20.40;1.00;;;;;;4950783;28;20034;-85
2023/09/25 11:26:37;;;;;;;0.10;0.10;;;20.50;1.00;;;;;;4960506;28;20416;-85
2023/09/25 11:29:08;;;;;;;0.10;0.10;;;20.70;1.00;;;;;;4971510;28;20043;-86
2023/09/25 11:31:34;;;;;;;;;;;20.90;1.00;;;;;;4976816;28;20043;-84
2023/09/25 11:34:00;;;;;;;0.20;0.20;;;21.10;1.00;;;;;;4976001;28;20343;-84
2023/09/25 11:36:27;;;;;;;0.68;0.68;;;21.30;1.00;;;;;;4954337;28;20039;-85
2023/09/25 11:38:53;;;;;;;0.28;0.20;;;21.40;1.00;;;;;;4968173;28;20050;-86
2023/09/25 11:41:19;;;;;;;0.43;0.43;;;21.30;1.00;;;;;;4975897;28;20033;-85
2023/09/25 11:43:46;;;;;;;0.10;0.10;;;21.30;1.00;;;;;;4975959;28;20046;-85
2023/09/25 11:46:13;;;;;;;0.10;0.10;;;21.20;1.00;;;;;;4957682;28;20049;-84
2023/09/25 11:48:39;;;;;;;0.10;0.10;;;21.30;1.00;;;;;;4957222;28;20047;-83
2023/09/25 11:51:05;;;;;;;0.52;0.52;;;21.10;1.00;;;;;;4971968;28;20118;-85
2023/09/25 11:53:31;;;;;;;1.23;0.57;;;21.20;1.00;;;;;;4947425;28;20034;-87
2023/09/25 11:55:58;;;;;;;0.10;0.10;;;21.40;1.00;;;;;;4954965;28;20046;-85
2023/09/25 11:58:28;;;;;;;0.10;0.10;;;21.50;1.00;;;;;;4968558;28;20050;-85
2023/09/25 12:00:54;;;;;;;0.40;0.40;;;21.60;1.00;;;;;;4969435;28;20148;-86
2023/09/25 12:03:20;;;;;;;0.20;0.20;;;21.40;1.00;;;;;;4966052;28;20413;-86
2023/09/25 12:05:47;;;;;;;0.47;0.47;;;21.20;1.00;;;;;;4975472;28;20039;-85
2023/09/25 12:08:16;;;;;;;0.15;0.15;;;21.40;1.00;;;;;;4959738;28;20107;-86
2023/09/25 12:10:42;;;;;;;0.10;0.10;;;21.70;1.00;;;;;;4955521;28;20039;-85
2023/09/25 12:13:09;;;;;;;0.65;0.17;;;21.90;1.00;;;;;;4957321;28;20384;-86
2023/09/25 12:15:36;;;;;;;0.10;0.10;;;22.10;1.00;;;;;;4969842;28;20035;-86
2023/09/25 12:18:05;;;;;;;0.30;0.30;;;22.10;1.00;;;;;;4966951;28;20038;-86
2023/09/25 12:20:36;;;;;;;0.10;0.10;;;22.20;1.00;;;;;;4950131;28;20368;-85
2023/09/25 12:23:02;;;;;;;;;;;22.30;1.00;;;;;;4957604;28;20436;-84
2023/09/25 12:25:29;;;;;;;0.20;0.20;;;22.10;1.00;;;;;;4963881;28;19914;-85
2023/09/25 12:27:56;;;;;;;1.10;0.68;;;22.10;1.00;;;;;;4950664;28;20380;-86
2023/09/25 12:30:22;;;;;;;0.20;0.20;;;22.10;1.00;;;;;;4962992;28;20043;-84
2023/09/25 12:32:48;;;;;;;0.30;0.30;;;22.10;1.00;;;;;;4948580;28;20428;-85
2023/09/25 12:35:15;;;;;;;0.60;0.60;;;22.10;1.00;;;;;;4972844;28;20175;-83
2023/09/25 12:37:47;;;;;;;0.35;0.35;;;22.00;1.00;;;;;;4956176;28;20178;-84
2023/09/25 12:40:15;;;;;;;0.32;0.32;;;22.00;1.00;;;;;;4957822;28;20411;-85
2023/09/25 12:42:44;;;;;;;0.10;0.10;;;21.90;1.00;;;;;;4941017;28;20372;-84
2023/09/25 12:45:11;;;;;;;1.55;1.08;;;21.90;1.00;;;;;;4965625;28;20046;-84
2023/09/25 12:47:37;;;;;;;0.38;0.30;;;21.80;1.00;;;;;;4943184;28;20098;-84
2023/09/25 12:50:04;;;;;;;0.20;0.20;;;21.90;1.00;;;;;;4983688;28;20034;-85
2023/09/25 12:52:31;;;;;;;0.30;0.30;;;21.80;1.00;;;;;;4984441;28;20234;-83
2023/09/25 12:54:58;;;;;;;0.10;0.10;;;21.90;1.00;;;;;;4975644;28;20047;-87
2023/09/25 12:57:25;;;;;;;0.43;0.43;;;22.00;1.00;;;;;;4956579;28;20035;-84